RJSKRJAA

Guest
Details From RJSK - AKITA
To RJAA - NARITA INTL
Flight Number -
Tags generated
Created
Modified
Stats Distance 231 nm / 428 km
Max Altitude 25,400 ft / 7,742 m
Waypoints 4
Social Downloads 1
Likes 0
Share VATSIM

Download

Looking for another format? Having issues loading an existing format? Contact us
Advertisement - Login to hide

Notes

Basic altitude profile: - Ascent Rate: 2500ft/min - Ascent Speed: 250kts - Cruise Altitude: 35000ft - Cruise Speed: 420kts - Descent Rate: 1500ft/min - Descent Speed: 250kts Options: - Use NATs: yes - Use PACOTS: yes - Use low airways: yes - Use high airways: yes

Route

RJSK YTE V32 GOC RJAA

ID Type Via Altitude Latitude Longitude Leg Dist Tot Dist Heading (true) Name
O RJSK APT - 0 ft / 0 m 39.61564˚ 140.21867˚ - 0 nm - AKITA
YTE VOR - 25,400 ft / 7,742 m 38.38862˚ 140.35795˚ 73 nm 73 nm 175° / 175° YAMAGATA VOR-DME
GOC VOR V32 (AWY-HI) 12,400 ft / 3,780 m 36.74437˚ 140.34985˚ 98 nm 172 nm 180° / 180° DAIGO VORTAC
O RJAA APT - 0 ft / 0 m 35.77655˚ 140.38277˚ 58 nm 230 nm 178° / 178° NARITA INTL

Altitude Profile

Advertisement - Login to hide

Weather


0- 5 10 15 20 25 30 35+ Temperature / ° C

Clouds and Precipitation
Forecast for 2017-12-12 00:00 UTC. Updated 2 hours ago

Ground ~20,000 ft ~40,000 ft Winds

RJSK

Details ICAO RJSK (AXT)
Name AKITA
Region Japan
Timezone Asia/Tokyo (UTC+9.0)
Stats Elevation 313 ft / 95 m (AMSL)
Location 39.615645° 140.218665°
Runways 1
Magnetic Variation 8.665° W

METAR

RJSK 120100Z 27027G38KT 7000 -SHSN FEW008 SCT015 BKN025 M00/M06 Q1007

Decode

TAF

TAF AMD RJSK 112339Z 1200/1306 28020G30KT 4000 -SHSN FEW010 BKN015 BKN020 TEMPO 1200/1206 28035G45KT 0500 SHSN VV003 TEMPO 1206/1209 28030G40KT 0700 SHSN FEW002 BKN005 BKN008 TEMPO 1209/1218 28030G40KT 0500 SHSN VV003 TEMPO 1218/1300 0700 SHSN FEW002 BKN005 BKN008 TEMPO 1300/1306 1500 -SHSN FEW005 BKN008 BKN015

Decode

Departure Runways

ID Width Length Bearing (true) Bearing (mag) Surface Threshold Offset Overrun Length
10 200 ft / 61 m 8,184 ft / 2,495 m 96.62° 105.29° Asphalt 0 ft / 0 m 200 ft / 61 m
28 200 ft / 61 m 8,184 ft / 2,495 m 276.64° 285.31° Asphalt 0 ft / 0 m 200 ft / 61 m

RJAA

Details ICAO RJAA (NRT)
Name NARITA INTL
Region Japan
Timezone Asia/Tokyo (UTC+9.0)
Stats Elevation 141 ft / 43 m (AMSL)
Location 35.776552° 140.382770°
Runways 2
Magnetic Variation 7.405° W

METAR

RJAA 120100Z 25009KT 220V290 9999 FEW030 09/M09 Q1010 NOSIG RMK 1CU030 A2985 MOD TURB OBS AT 0030Z 6NM NE NARITA BTN 9000FT AND 10000FT IN CMB A333 TAX601

Decode

TAF

TAF RJAA 112308Z 1200/1306 27008KT 9999 FEW030= TAF RJBB 112305Z 1200/1306 29020KT 9999 FEW020 BKN045

Decode

Destination Runways

ID Width Length Bearing (true) Bearing (mag) Surface Threshold Offset Overrun Length
16L 196 ft / 60 m 7,162 ft / 2,183 m 149.61° 157.01° Asphalt 190 ft / 58 m 0 ft / 0 m
16R 196 ft / 60 m 13,142 ft / 4,006 m 149.61° 157.01° Asphalt 0 ft / 0 m 410 ft / 125 m
34L 196 ft / 60 m 13,142 ft / 4,006 m 329.62° 337.02° Asphalt 0 ft / 0 m 415 ft / 126 m
34R 196 ft / 60 m 7,162 ft / 2,183 m 329.62° 337.02° Asphalt 190 ft / 58 m 0 ft / 0 m

Approach Navaids

Runway Type Ident Frequency Range Bearing (true) Bearing (mag) Slope Elevation
16L Localiser ITM 110.70 MHz 18 nm / 33 km 149.62° 157.02° - 141 ft / 43 m (AMSL)
16L Glidescope ITM 110.70 MHz 10 nm / 19 km 149.62° 157.02° 3.00° 141 ft / 43 m (AMSL)
16L DME ITM 110.70 MHz 18 nm / 33 km - - - 145 ft / 44 m (AMSL)
16R Localiser IKF 111.50 MHz 18 nm / 33 km 149.63° 157.03° - 141 ft / 43 m (AMSL)
16R Glidescope IKF 111.50 MHz 10 nm / 19 km 149.62° 157.02° 3.00° 141 ft / 43 m (AMSL)
16R DME IKF 111.50 MHz 18 nm / 33 km - - - 145 ft / 44 m (AMSL)
34L Localiser IYQ 111.90 MHz 18 nm / 33 km 329.61° 337.01° - 141 ft / 43 m (AMSL)
34L Glidescope IYQ 111.90 MHz 10 nm / 19 km 329.62° 337.02° 3.00° 141 ft / 43 m (AMSL)
34L DME IYQ 111.90 MHz 18 nm / 33 km - - - 153 ft / 47 m (AMSL)
34R Localiser ITJ 110.90 MHz 18 nm / 33 km 329.62° 337.02° - 141 ft / 43 m (AMSL)
34R Glidescope ITJ 110.90 MHz 10 nm / 19 km 329.62° 337.02° 3.00° 141 ft / 43 m (AMSL)
34R DME ITJ 110.90 MHz 18 nm / 33 km - - - 148 ft / 45 m (AMSL)

Popular Alternatives